Antimano, Venezuela
Current Conditions -  °F | °C
As of 3:00 PM on Sunday 23 Nov 2014 (Local Time) from SVMI Reporting Station
Broken Clouds Broken Clouds  
Wind Chill: 81°   Ceiling: 1600
Heat Index: 85°   Visibility: 6mi
Dew Point: 73°   Wind: 7mph
Humidity: 79%   Direction: 50°NE
Pressure: 29.91"   Gusts: NA
Location:  10.47°N, 66.98°W
Report Text: SVMI 231900Z 05006KT 9999 BKN016 27/23 Q1013 NOSIG
Loading
Personal Weather Stations






























Interactive Weather Map New forecast layout! Learn more

10-Day Weather Forecast

Advertisements
Track Severe Weather on mobile